| Date | Time | Temp. (oF) | Dew Point (oF) | Rel. Hum. (%) | Press. (in.) | Wind Dir. | Wind Speed (mph) | Hourly Rainfall (in.) |
|
|---|---|---|---|---|---|---|---|---|---|
| 1 | 12/17 | 00:00 | 36 | 31 | 82 | 30.31 | E | 2 | 0.00 |
| 2 | 12/16 | 23:00 | 36 | 31 | 82 | 30.33 | E | 3 | 0.00 |
| 3 | 12/16 | 22:00 | 37 | 31 | 81 | 30.35 | ESE | 0 | 0.00 |
| 4 | 12/16 | 21:00 | 37 | 30 | 78 | 30.40 | SSW | 4 | 0.00 |
| 5 | 12/16 | 20:00 | 37 | 30 | 76 | 30.41 | SSW | 3 | 0.00 |
| 6 | 12/16 | 19:00 | 36 | 29 | 76 | 30.40 | E | 1 | 0.00 |
| 7 | 12/16 | 18:00 | 37 | 28 | 72 | 30.39 | ENE | 1 | 0.00 |
| 8 | 12/16 | 17:00 | 38 | 28 | 68 | 30.40 | NNW | 1 | 0.00 |
| 9 | 12/16 | 16:00 | 39 | 29 | 68 | 30.42 | W | 3 | 0.00 |
| 10 | 12/16 | 15:00 | 39 | 26 | 61 | 30.40 | SSW | 4 | 0.00 |
| 11 | 12/16 | 14:00 | 39 | 28 | 65 | 30.39 | N | 2 | 0.00 |
| 12 | 12/16 | 13:00 | 39 | 28 | 65 | 30.43 | ENE | 3 | 0.00 |
| 13 | 12/16 | 12:00 | 38 | 28 | 68 | 30.45 | ENE | 4 | 0.00 |
| 14 | 12/16 | 11:00 | 36 | 27 | 72 | 30.49 | NNE | 5 | 0.00 |
| 15 | 12/16 | 10:00 | 33 | 26 | 77 | 30.53 | NNW | 5 | 0.00 |
| 16 | 12/16 | 09:00 | 31 | 27 | 86 | 30.54 | NNW | 3 | 0.00 |
| 17 | 12/16 | 08:00 | 27 | 25 | 93 | 30.53 | NW | 2 | 0.00 |
| 18 | 12/16 | 07:00 | 26 | 24 | 93 | 30.53 | W | 2 | 0.00 |
| 19 | 12/16 | 06:00 | 28 | 25 | 90 | 30.52 | NW | 2 | 0.00 |
| 20 | 12/16 | 05:00 | 26 | 24 | 93 | 30.51 | WSW | 1 | 0.00 |
| 21 | 12/16 | 04:00 | 27 | 24 | 90 | 30.48 | NW | 2 | 0.00 |
| 22 | 12/16 | 03:00 | 29 | 25 | 85 | 30.48 | WNW | 0 | 0.00 |
| 23 | 12/16 | 02:00 | 31 | 26 | 82 | 30.46 | NW | 1 | 0.00 |
| 24 | 12/16 | 01:00 | 32 | 25 | 78 | 30.45 | NW | 1 | 0.00 |